Time;durP1;ratioP1;P1;durP2;ratioP2;P2;SDS_P1;SDS_P2;PMS_P1;PMS_P2;Temp;Humidity;BMP_temperature;BMP_pressure;BME280_temperature;BME280_humidity;BME280_pressure;Samples;Min_cycle;Max_cycle;Signal;HPM_P1;HPM_P2
2021/09/19 00:00:09;;;;;;;10.25;6.18;;;;;;;;;;5013606;28;20061;-63
2021/09/19 00:02:34;;;;;;;9.05;6.47;;;;;;;;;;5032226;28;20025;-62
2021/09/19 00:05:00;;;;;;;8.80;6.00;;;;;;;;;;5032526;28;20044;-63
2021/09/19 00:07:25;;;;;;;7.43;5.50;;;;;;;;;;5032028;28;20033;-62
2021/09/19 00:09:50;;;;;;;9.90;6.22;;;;;;;;;;5032129;28;20112;-63
2021/09/19 00:12:15;;;;;;;9.32;6.20;;;;;;;;;;5030661;28;20065;-63
2021/09/19 00:14:40;;;;;;;7.95;5.88;;;;;;;;;;5033399;28;20013;-63
2021/09/19 00:17:06;;;;;;;10.20;6.53;;;;;;;;;;5035414;28;20033;-63
2021/09/19 00:19:31;;;;;;;9.35;6.32;;;;;;;;;;5035878;28;20030;-63
2021/09/19 00:21:56;;;;;;;9.63;5.70;;;;;;;;;;5035389;28;20448;-63
2021/09/19 00:24:23;;;;;;;8.77;6.40;;;;;;;;;;5035695;28;20036;-63
2021/09/19 00:26:48;;;;;;;8.50;6.00;;;;;;;;;;5035358;28;20046;-63
2021/09/19 00:29:14;;;;;;;7.65;5.47;;;;;;;;;;5034369;28;20159;-63
2021/09/19 00:31:39;;;;;;;8.63;6.22;;;;;;;;;;5033751;28;20044;-63
2021/09/19 00:34:04;;;;;;;8.00;5.97;;;;;;;;;;5035605;28;20022;-63
2021/09/19 00:36:29;;;;;;;10.02;6.32;;;;;;;;;;5035033;28;20025;-63
2021/09/19 00:38:55;;;;;;;9.05;6.47;;;;;;;;;;5035636;28;20025;-64
2021/09/19 00:41:20;;;;;;;9.57;6.90;;;;;;;;;;5023991;28;20034;-63
2021/09/19 00:43:45;;;;;;;10.13;6.80;;;;;;;;;;5015626;28;20028;-63
2021/09/19 00:46:10;;;;;;;9.95;6.03;;;;;;;;;;5024758;28;20044;-63
2021/09/19 00:48:36;;;;;;;11.45;6.40;;;;;;;;;;5035249;28;20365;-62
2021/09/19 00:51:03;;;;;;;14.35;6.20;;;;;;;;;;5034851;28;20037;-64
2021/09/19 00:53:28;;;;;;;8.13;5.72;;;;;;;;;;5035455;28;20040;-63
2021/09/19 00:55:53;;;;;;;8.80;5.60;;;;;;;;;;5027630;28;20101;-63
2021/09/19 00:58:18;;;;;;;9.35;5.55;;;;;;;;;;5014302;28;20026;-63
2021/09/19 01:00:49;;;;;;;6.85;5.25;;;;;;;;;;5015129;28;20084;-63
2021/09/19 01:03:14;;;;;;;8.95;5.80;;;;;;;;;;5015267;28;20025;-63
2021/09/19 01:05:40;;;;;;;7.80;5.90;;;;;;;;;;5014902;28;20111;-63
2021/09/19 01:08:05;;;;;;;8.07;5.75;;;;;;;;;;5015255;28;20430;-63
2021/09/19 01:10:30;;;;;;;7.88;5.70;;;;;;;;;;5018778;28;20499;-63
2021/09/19 01:12:55;;;;;;;11.45;6.32;;;;;;;;;;5034834;28;20025;-63
2021/09/19 01:15:21;;;;;;;10.25;5.80;;;;;;;;;;5034423;28;20372;-62
2021/09/19 01:17:46;;;;;;;8.45;5.97;;;;;;;;;;5034647;28;20013;-63
2021/09/19 01:20:15;;;;;;;10.70;5.97;;;;;;;;;;5034117;28;20021;-63
2021/09/19 01:22:41;;;;;;;8.43;5.50;;;;;;;;;;5032896;28;20029;-64
2021/09/19 01:25:07;;;;;;;9.77;6.10;;;;;;;;;;5032373;28;20037;-65
2021/09/19 01:27:33;;;;;;;10.18;6.20;;;;;;;;;;5013400;28;20104;-65
2021/09/19 01:29:58;;;;;;;8.35;6.20;;;;;;;;;;5014162;28;20476;-64
2021/09/19 01:32:23;;;;;;;8.27;6.05;;;;;;;;;;5012260;28;20026;-62
2021/09/19 01:34:49;;;;;;;10.45;5.78;;;;;;;;;;5014080;28;20076;-64
2021/09/19 01:37:14;;;;;;;11.13;5.97;;;;;;;;;;5031855;28;20030;-64
2021/09/19 01:39:39;;;;;;;8.73;5.70;;;;;;;;;;5033853;28;20113;-64
2021/09/19 01:42:04;;;;;;;8.55;5.68;;;;;;;;;;5016395;28;20033;-64
2021/09/19 01:44:30;;;;;;;8.95;5.72;;;;;;;;;;5012417;28;20133;-65
2021/09/19 01:46:55;;;;;;;10.98;6.18;;;;;;;;;;5013002;28;20037;-64
2021/09/19 01:49:20;;;;;;;8.15;5.70;;;;;;;;;;5013952;28;20038;-63
2021/09/19 01:51:46;;;;;;;7.50;5.57;;;;;;;;;;5012110;28;20030;-63
2021/09/19 01:54:11;;;;;;;10.18;5.35;;;;;;;;;;5013630;28;20021;-63
2021/09/19 01:56:36;;;;;;;9.07;5.45;;;;;;;;;;5013228;28;20060;-63
2021/09/19 01:59:01;;;;;;;9.25;6.75;;;;;;;;;;5013557;28;20029;-63
2021/09/19 02:01:28;;;;;;;9.50;6.00;;;;;;;;;;5024841;28;20033;-63
2021/09/19 02:03:53;;;;;;;11.48;6.55;;;;;;;;;;5033111;28;20033;-63
2021/09/19 02:06:19;;;;;;;7.28;5.70;;;;;;;;;;5033007;28;20041;-63
2021/09/19 02:08:45;;;;;;;8.18;5.57;;;;;;;;;;5033357;28;20519;-63
2021/09/19 02:11:10;;;;;;;7.72;5.82;;;;;;;;;;5032859;28;20488;-63
2021/09/19 02:13:36;;;;;;;11.55;5.63;;;;;;;;;;5031829;28;20423;-63
2021/09/19 02:16:01;;;;;;;9.50;5.75;;;;;;;;;;5032698;28;20033;-63
2021/09/19 02:18:26;;;;;;;8.07;5.93;;;;;;;;;;5033335;28;20344;-63
2021/09/19 02:20:51;;;;;;;8.82;5.53;;;;;;;;;;5032509;28;20391;-63
2021/09/19 02:23:17;;;;;;;11.90;6.43;;;;;;;;;;5033058;28;20098;-63
2021/09/19 02:25:42;;;;;;;7.78;5.53;;;;;;;;;;5032608;28;20029;-64
2021/09/19 02:28:07;;;;;;;9.15;7.10;;;;;;;;;;5032956;28;20468;-62
2021/09/19 02:30:32;;;;;;;12.20;7.03;;;;;;;;;;5027993;28;20404;-63
2021/09/19 02:32:57;;;;;;;10.27;6.13;;;;;;;;;;5013242;28;20048;-63
2021/09/19 02:35:23;;;;;;;8.45;5.88;;;;;;;;;;5012477;28;20029;-62
2021/09/19 02:37:48;;;;;;;8.48;6.10;;;;;;;;;;5012822;28;20383;-63
2021/09/19 02:40:13;;;;;;;9.70;5.97;;;;;;;;;;5014342;28;20487;-65
2021/09/19 02:42:38;;;;;;;9.00;6.10;;;;;;;;;;5032558;28;20018;-62
2021/09/19 02:45:04;;;;;;;9.20;6.30;;;;;;;;;;5031541;28;20025;-63
2021/09/19 02:47:29;;;;;;;8.80;6.25;;;;;;;;;;5013017;28;20028;-63
2021/09/19 02:49:54;;;;;;;7.88;5.88;;;;;;;;;;5012709;28;20106;-63
2021/09/19 02:52:19;;;;;;;9.27;6.38;;;;;;;;;;5031430;28;20116;-63
2021/09/19 02:54:45;;;;;;;10.18;6.47;;;;;;;;;;5032331;28;20104;-62
2021/09/19 02:57:10;;;;;;;9.30;6.18;;;;;;;;;;5014414;28;20069;-63
2021/09/19 02:59:35;;;;;;;8.40;6.43;;;;;;;;;;5012589;28;20460;-62
2021/09/19 03:02:00;;;;;;;7.07;5.15;;;;;;;;;;5028577;28;20460;-62
2021/09/19 03:04:25;;;;;;;7.00;4.97;;;;;;;;;;5032150;28;20541;-63
2021/09/19 03:06:51;;;;;;;7.65;5.10;;;;;;;;;;5031745;28;20088;-63
2021/09/19 03:09:16;;;;;;;8.98;5.07;;;;;;;;;;5032115;28;20436;-62
2021/09/19 03:11:41;;;;;;;9.15;6.20;;;;;;;;;;5031905;28;20101;-63
2021/09/19 03:14:06;;;;;;;7.80;5.80;;;;;;;;;;5032117;28;20021;-63
2021/09/19 03:16:32;;;;;;;9.60;6.55;;;;;;;;;;5030404;28;20037;-63
2021/09/19 03:18:57;;;;;;;11.10;7.13;;;;;;;;;;5032367;28;20148;-63
2021/09/19 03:21:22;;;;;;;7.95;6.03;;;;;;;;;;5030504;28;20072;-62
2021/09/19 03:23:47;;;;;;;10.63;6.05;;;;;;;;;;5032209;28;20357;-62
2021/09/19 03:26:12;;;;;;;7.53;5.00;;;;;;;;;;5031728;28;20372;-62
2021/09/19 03:28:38;;;;;;;9.73;5.13;;;;;;;;;;5031997;28;20468;-63
2021/09/19 03:31:03;;;;;;;9.05;5.57;;;;;;;;;;5023069;28;20468;-63
2021/09/19 03:33:28;;;;;;;9.02;5.05;;;;;;;;;;5012154;28;20041;-62
2021/09/19 03:35:53;;;;;;;11.80;4.97;;;;;;;;;;5011322;28;20056;-63
2021/09/19 03:38:18;;;;;;;9.65;5.72;;;;;;;;;;5012326;28;20112;-62
2021/09/19 03:40:44;;;;;;;8.00;4.30;;;;;;;;;;5011962;28;20112;-62
2021/09/19 03:43:09;;;;;;;7.88;4.72;;;;;;;;;;5011960;28;20061;-64
2021/09/19 03:45:34;;;;;;;7.47;5.10;;;;;;;;;;5016311;28;20072;-62
2021/09/19 03:48:03;;;;;;;7.95;5.13;;;;;;;;;;5031924;28;20055;-62
2021/09/19 03:50:28;;;;;;;6.28;4.35;;;;;;;;;;5034248;28;20033;-64
2021/09/19 03:52:53;;;;;;;8.05;5.07;;;;;;;;;;5035789;28;20388;-64
2021/09/19 03:55:18;;;;;;;9.90;4.45;;;;;;;;;;5035353;28;20380;-64
2021/09/19 03:57:44;;;;;;;6.57;4.63;;;;;;;;;;5035644;28;20100;-64
2021/09/19 04:00:09;;;;;;;7.15;4.90;;;;;;;;;;5033955;28;20017;-63
2021/09/19 04:02:34;;;;;;;6.30;4.65;;;;;;;;;;5015935;28;20493;-63
2021/09/19 04:05:00;;;;;;;6.35;3.75;;;;;;;;;;5015733;28;20030;-63
2021/09/19 04:07:25;;;;;;;6.32;4.53;;;;;;;;;;5014533;28;20033;-63
2021/09/19 04:09:50;;;;;;;7.28;4.10;;;;;;;;;;5015035;28;20053;-63
2021/09/19 04:12:15;;;;;;;7.78;4.03;;;;;;;;;;5033404;28;20060;-63
2021/09/19 04:14:41;;;;;;;5.93;4.25;;;;;;;;;;5035094;28;20195;-63
2021/09/19 04:17:06;;;;;;;7.30;4.72;;;;;;;;;;5034721;28;20170;-64
2021/09/19 04:19:32;;;;;;;10.38;5.00;;;;;;;;;;5035208;28;20053;-64
2021/09/19 04:21:57;;;;;;;7.15;3.92;;;;;;;;;;5018631;28;20026;-63
2021/09/19 04:24:23;;;;;;;6.03;3.75;;;;;;;;;;5015109;28;20424;-64
2021/09/19 04:26:48;;;;;;;6.47;3.97;;;;;;;;;;5014738;28;20034;-63
2021/09/19 04:29:13;;;;;;;4.55;3.60;;;;;;;;;;5013872;28;20018;-64
2021/09/19 04:31:38;;;;;;;8.40;5.10;;;;;;;;;;5014802;28;20547;-64
2021/09/19 04:34:04;;;;;;;7.78;5.05;;;;;;;;;;5015266;28;20354;-63
2021/09/19 04:36:29;;;;;;;7.93;5.00;;;;;;;;;;5014690;28;20435;-63
2021/09/19 04:38:54;;;;;;;9.20;4.63;;;;;;;;;;5014938;28;20018;-64
2021/09/19 04:41:20;;;;;;;7.18;4.60;;;;;;;;;;5014536;28;20030;-63
2021/09/19 04:43:45;;;;;;;9.50;4.75;;;;;;;;;;5014711;28;20025;-63
2021/09/19 04:46:10;;;;;;;10.10;4.60;;;;;;;;;;5023965;28;20145;-63
2021/09/19 04:48:35;;;;;;;8.63;4.90;;;;;;;;;;5034796;28;20018;-64
2021/09/19 04:51:00;;;;;;;11.77;5.10;;;;;;;;;;5034066;28;20057;-63
2021/09/19 04:53:26;;;;;;;7.07;5.20;;;;;;;;;;5034403;28;20024;-64
2021/09/19 04:55:51;;;;;;;8.48;4.75;;;;;;;;;;5033977;28;20038;-64
2021/09/19 04:58:16;;;;;;;8.48;4.90;;;;;;;;;;5034441;28;20021;-63
2021/09/19 05:00:41;;;;;;;9.43;5.50;;;;;;;;;;5033714;28;20026;-63
2021/09/19 05:03:06;;;;;;;10.60;5.90;;;;;;;;;;5034298;28;20022;-64
2021/09/19 05:05:32;;;;;;;16.20;5.82;;;;;;;;;;5029553;28;20042;-64
2021/09/19 05:07:57;;;;;;;7.82;5.80;;;;;;;;;;5014559;28;20069;-63
2021/09/19 05:10:22;;;;;;;9.55;6.65;;;;;;;;;;5013923;28;20125;-64
2021/09/19 05:12:47;;;;;;;12.32;6.63;;;;;;;;;;5014484;28;20117;-63
2021/09/19 05:15:13;;;;;;;13.65;6.43;;;;;;;;;;5015418;28;20148;-63
2021/09/19 05:17:38;;;;;;;17.88;6.90;;;;;;;;;;5032713;28;20083;-63
2021/09/19 05:20:03;;;;;;;9.43;6.70;;;;;;;;;;5033804;28;20025;-64
2021/09/19 05:22:28;;;;;;;7.35;5.68;;;;;;;;;;5033825;28;20101;-64
2021/09/19 05:24:54;;;;;;;12.05;6.43;;;;;;;;;;5033807;28;20502;-63
2021/09/19 05:27:19;;;;;;;8.77;6.30;;;;;;;;;;5033398;28;20557;-63
2021/09/19 05:29:45;;;;;;;10.30;6.88;;;;;;;;;;5033826;28;20127;-65
2021/09/19 05:32:10;;;;;;;12.48;5.57;;;;;;;;;;5015719;28;20026;-64
2021/09/19 05:34:35;;;;;;;9.90;5.45;;;;;;;;;;5013954;28;20022;-63
2021/09/19 05:37:01;;;;;;;7.50;5.22;;;;;;;;;;5030035;28;20495;-64
2021/09/19 05:39:26;;;;;;;6.80;4.80;;;;;;;;;;5033302;28;20052;-63
2021/09/19 05:41:51;;;;;;;6.95;4.95;;;;;;;;;;5018127;28;20041;-63
2021/09/19 05:44:17;;;;;;;7.57;5.05;;;;;;;;;;5013692;28;20022;-63
2021/09/19 05:46:42;;;;;;;8.05;4.95;;;;;;;;;;5013396;28;20041;-63
2021/09/19 05:49:07;;;;;;;10.52;4.22;;;;;;;;;;5014015;28;20018;-64
2021/09/19 05:51:32;;;;;;;9.27;3.97;;;;;;;;;;5025944;28;20506;-64
2021/09/19 05:53:58;;;;;;;5.38;3.47;;;;;;;;;;5033385;28;20480;-65
2021/09/19 05:56:23;;;;;;;7.13;3.50;;;;;;;;;;5032995;28;20073;-64
2021/09/19 05:58:48;;;;;;;5.97;3.30;;;;;;;;;;5033456;28;20116;-64
2021/09/19 06:01:13;;;;;;;6.75;3.28;;;;;;;;;;5023111;28;20132;-64
2021/09/19 06:03:40;;;;;;;7.15;3.20;;;;;;;;;;5013678;28;20409;-64
2021/09/19 06:06:06;;;;;;;5.03;3.00;;;;;;;;;;5013200;28;20492;-64
2021/09/19 06:08:31;;;;;;;5.10;2.70;;;;;;;;;;5013359;28;20026;-65
2021/09/19 06:10:57;;;;;;;5.18;3.33;;;;;;;;;;5011374;28;20393;-65
2021/09/19 06:13:22;;;;;;;4.50;3.30;;;;;;;;;;5012565;28;20372;-64
2021/09/19 06:15:47;;;;;;;5.53;3.63;;;;;;;;;;5012862;28;20084;-65
2021/09/19 06:18:12;;;;;;;6.70;3.70;;;;;;;;;;5013533;28;20025;-64
2021/09/19 06:20:38;;;;;;;4.95;3.40;;;;;;;;;;5011662;28;20026;-64
2021/09/19 06:23:03;;;;;;;5.78;3.28;;;;;;;;;;5013176;28;20034;-63
2021/09/19 06:25:28;;;;;;;5.57;2.88;;;;;;;;;;5012749;28;20112;-64
2021/09/19 06:27:53;;;;;;;8.68;3.60;;;;;;;;;;5013222;28;20124;-65
2021/09/19 06:30:18;;;;;;;7.30;3.00;;;;;;;;;;5012736;28;20076;-63
2021/09/19 06:32:44;;;;;;;5.28;2.97;;;;;;;;;;5013308;28;20105;-64
2021/09/19 06:35:09;;;;;;;5.57;2.90;;;;;;;;;;5012708;28;20050;-63
2021/09/19 06:37:34;;;;;;;5.35;2.70;;;;;;;;;;5012825;28;20053;-64
2021/09/19 06:39:59;;;;;;;3.40;2.72;;;;;;;;;;5013156;28;20067;-63
2021/09/19 06:42:25;;;;;;;5.32;2.70;;;;;;;;;;5012456;28;20045;-63
2021/09/19 06:44:50;;;;;;;3.75;2.47;;;;;;;;;;5012669;28;20041;-63
2021/09/19 06:47:16;;;;;;;4.03;2.80;;;;;;;;;;5030806;28;20117;-63
2021/09/19 06:49:41;;;;;;;8.45;2.38;;;;;;;;;;5032512;28;20025;-63
2021/09/19 06:52:06;;;;;;;3.95;2.50;;;;;;;;;;5014867;28;20033;-63
2021/09/19 06:54:31;;;;;;;3.70;2.50;;;;;;;;;;5012511;28;20064;-63
2021/09/19 06:56:56;;;;;;;9.73;2.80;;;;;;;;;;5010530;28;20034;-63
2021/09/19 06:59:22;;;;;;;6.15;2.88;;;;;;;;;;5012376;28;20109;-63
2021/09/19 07:01:47;;;;;;;5.38;2.85;;;;;;;;;;5012073;28;20117;-66
2021/09/19 07:04:12;;;;;;;4.75;2.42;;;;;;;;;;5012534;28;20494;-62
2021/09/19 07:06:37;;;;;;;5.18;2.97;;;;;;;;;;5025186;28;20125;-63
2021/09/19 07:09:03;;;;;;;6.57;2.70;;;;;;;;;;5031778;28;20172;-65
2021/09/19 07:11:28;;;;;;;6.00;3.20;;;;;;;;;;5019610;28;20045;-63
2021/09/19 07:13:53;;;;;;;6.00;2.85;;;;;;;;;;5010891;28;20136;-63
2021/09/19 07:16:18;;;;;;;4.00;3.03;;;;;;;;;;5022512;28;20041;-63
2021/09/19 07:18:44;;;;;;;7.95;2.95;;;;;;;;;;5032703;28;20022;-63
2021/09/19 07:21:09;;;;;;;7.57;3.38;;;;;;;;;;5032435;28;20036;-63
2021/09/19 07:23:34;;;;;;;3.85;2.92;;;;;;;;;;5033753;28;20499;-63
2021/09/19 07:25:59;;;;;;;5.00;3.30;;;;;;;;;;5036252;28;20094;-64
2021/09/19 07:28:26;;;;;;;5.65;3.90;;;;;;;;;;5036651;28;20044;-64
2021/09/19 07:30:52;;;;;;;5.22;3.83;;;;;;;;;;5036184;28;20029;-65
2021/09/19 07:33:17;;;;;;;5.45;4.00;;;;;;;;;;5036539;28;20025;-65
2021/09/19 07:35:42;;;;;;;5.38;4.00;;;;;;;;;;5036031;28;20068;-64
2021/09/19 07:38:08;;;;;;;5.95;4.00;;;;;;;;;;5036645;28;20452;-64
2021/09/19 07:40:33;;;;;;;6.45;4.60;;;;;;;;;;5031531;28;20507;-64
2021/09/19 07:42:59;;;;;;;5.95;4.30;;;;;;;;;;5016298;28;20061;-64
2021/09/19 07:45:25;;;;;;;6.65;4.68;;;;;;;;;;5015748;28;20042;-64
2021/09/19 07:47:50;;;;;;;7.43;4.88;;;;;;;;;;5016308;28;20413;-64
2021/09/19 07:50:15;;;;;;;5.28;4.30;;;;;;;;;;5014699;28;20109;-63
2021/09/19 07:52:41;;;;;;;5.57;4.30;;;;;;;;;;5016124;28;20072;-63
2021/09/19 07:55:06;;;;;;;8.05;4.60;;;;;;;;;;5015755;28;20101;-63
2021/09/19 07:57:31;;;;;;;7.82;4.50;;;;;;;;;;5016091;28;20029;-63
2021/09/19 07:59:57;;;;;;;7.13;4.85;;;;;;;;;;5016027;28;20026;-63
2021/09/19 08:02:22;;;;;;;7.53;5.00;;;;;;;;;;5015563;28;20034;-63
2021/09/19 08:04:47;;;;;;;5.97;4.47;;;;;;;;;;5016041;28;20113;-63
2021/09/19 08:07:12;;;;;;;6.05;4.47;;;;;;;;;;5015624;28;20041;-63
2021/09/19 08:09:38;;;;;;;5.40;4.55;;;;;;;;;;5014534;28;20450;-63
2021/09/19 08:12:03;;;;;;;5.63;4.38;;;;;;;;;;5015544;28;20057;-63
2021/09/19 08:14:28;;;;;;;6.43;4.10;;;;;;;;;;5016400;28;20083;-63
2021/09/19 08:16:54;;;;;;;5.80;4.10;;;;;;;;;;5015488;28;20030;-63
2021/09/19 08:19:21;;;;;;;6.97;4.20;;;;;;;;;;5015843;28;20072;-63
2021/09/19 08:21:46;;;;;;;5.63;3.78;;;;;;;;;;5015443;28;20484;-64
2021/09/19 08:24:11;;;;;;;5.22;4.10;;;;;;;;;;5015974;28;20028;-63
2021/09/19 08:26:37;;;;;;;5.72;4.10;;;;;;;;;;5015327;28;20041;-65
2021/09/19 08:29:03;;;;;;;6.38;3.97;;;;;;;;;;5015771;28;20104;-65
2021/09/19 08:31:28;;;;;;;7.45;4.00;;;;;;;;;;5015178;28;20145;-63
2021/09/19 08:33:53;;;;;;;5.95;3.85;;;;;;;;;;5015432;28;20033;-63
2021/09/19 08:36:19;;;;;;;6.47;4.28;;;;;;;;;;5014611;28;20034;-65
2021/09/19 08:38:44;;;;;;;6.55;4.40;;;;;;;;;;5015477;28;20121;-65
2021/09/19 08:41:10;;;;;;;5.63;3.90;;;;;;;;;;5015006;28;20392;-65
2021/09/19 08:43:35;;;;;;;6.43;4.28;;;;;;;;;;5015333;28;20041;-65
2021/09/19 08:46:00;;;;;;;7.05;3.92;;;;;;;;;;5014680;28;20113;-64
2021/09/19 08:48:28;;;;;;;5.45;3.90;;;;;;;;;;5013947;28;20116;-62
2021/09/19 08:50:53;;;;;;;7.75;3.97;;;;;;;;;;5014380;28;20033;-62
2021/09/19 08:53:19;;;;;;;5.47;3.92;;;;;;;;;;5014986;28;20025;-60
2021/09/19 08:55:44;;;;;;;7.32;4.20;;;;;;;;;;5014658;28;20113;-61
2021/09/19 08:58:10;;;;;;;6.10;3.50;;;;;;;;;;5013667;28;20014;-61
2021/09/19 09:00:53;;;;;;;10.98;4.00;;;;;;;;;;5013958;28;20034;-61
2021/09/19 09:03:20;;;;;;;5.93;3.95;;;;;;;;;;5014779;28;20053;-61
2021/09/19 09:05:55;;;;;;;7.03;3.78;;;;;;;;;;5020469;28;20037;-61
2021/09/19 09:08:20;;;;;;;5.45;3.95;;;;;;;;;;5034193;28;20063;-66
2021/09/19 09:10:46;;;;;;;6.43;3.45;;;;;;;;;;5034137;28;20131;-65
2021/09/19 09:13:12;;;;;;;4.65;3.53;;;;;;;;;;5033274;28;20053;-61
2021/09/19 09:15:44;;;;;;;8.40;4.15;;;;;;;;;;5034202;28;20054;-61
2021/09/19 09:18:13;;;;;;;7.53;4.20;;;;;;;;;;5034493;28;20025;-61
2021/09/19 09:20:47;;;;;;;6.43;4.28;;;;;;;;;;5033672;28;20040;-63
2021/09/19 09:23:21;;;;;;;5.22;3.97;;;;;;;;;;5032886;28;20025;-61
2021/09/19 09:25:46;;;;;;;4.70;3.58;;;;;;;;;;5033760;28;20041;-62
2021/09/19 09:28:11;;;;;;;5.50;3.42;;;;;;;;;;5033551;28;20353;-62
2021/09/19 09:30:37;;;;;;;9.10;4.05;;;;;;;;;;5028767;28;20509;-61
2021/09/19 09:33:05;;;;;;;4.90;3.58;;;;;;;;;;5013978;28;20485;-61
2021/09/19 09:35:30;;;;;;;6.40;3.80;;;;;;;;;;5013360;28;20060;-63
2021/09/19 09:37:56;;;;;;;5.10;3.47;;;;;;;;;;5014338;28;20022;-65
2021/09/19 09:40:28;;;;;;;7.43;4.10;;;;;;;;;;5016431;28;20053;-62
2021/09/19 09:43:03;;;;;;;10.80;3.35;;;;;;;;;;5034233;28;20021;-61
2021/09/19 09:45:30;;;;;;;9.88;4.72;;;;;;;;;;5029573;28;20038;-62
2021/09/19 09:47:55;;;;;;;4.95;3.35;;;;;;;;;;5006881;28;20117;-62
2021/09/19 09:50:24;;;;;;;19.77;6.28;;;;;;;;;;5008778;28;20053;-62
2021/09/19 09:52:49;;;;;;;5.75;3.25;;;;;;;;;;5018061;28;20269;-62
2021/09/19 09:55:14;;;;;;;6.10;3.20;;;;;;;;;;5028559;28;20491;-62
2021/09/19 09:57:58;;;;;;;4.82;3.45;;;;;;;;;;5013902;28;20468;-62
2021/09/19 10:00:23;;;;;;;9.68;3.95;;;;;;;;;;5010408;28;20057;-62
2021/09/19 10:02:49;;;;;;;5.03;3.30;;;;;;;;;;4994310;28;20417;-62
2021/09/19 10:05:14;;;;;;;5.53;3.38;;;;;;;;;;4993910;28;20038;-62
2021/09/19 10:07:40;;;;;;;5.28;2.97;;;;;;;;;;4993249;28;20412;-62
2021/09/19 10:10:07;;;;;;;5.00;3.20;;;;;;;;;;4994002;28;20394;-62
2021/09/19 10:12:32;;;;;;;4.82;3.40;;;;;;;;;;4993014;28;20106;-61
2021/09/19 10:14:57;;;;;;;4.70;3.35;;;;;;;;;;4994122;28;20105;-61
2021/09/19 10:17:23;;;;;;;4.82;3.20;;;;;;;;;;4993726;28;20065;-61
2021/09/19 10:19:48;;;;;;;5.60;3.15;;;;;;;;;;4993898;28;20026;-61
2021/09/19 10:22:14;;;;;;;4.22;2.95;;;;;;;;;;4993657;28;20030;-61
2021/09/19 10:24:40;;;;;;;5.75;3.42;;;;;;;;;;4992729;28;20049;-61
2021/09/19 10:27:13;;;;;;;5.50;3.55;;;;;;;;;;4993416;28;20456;-62
2021/09/19 10:29:38;;;;;;;6.05;3.30;;;;;;;;;;4992545;28;20058;-61
2021/09/19 10:32:03;;;;;;;5.55;3.00;;;;;;;;;;4993335;28;20050;-61
2021/09/19 10:34:30;;;;;;;4.47;3.20;;;;;;;;;;4993952;28;20058;-61
2021/09/19 10:36:56;;;;;;;4.30;3.15;;;;;;;;;;5008960;28;20034;-61
2021/09/19 10:39:24;;;;;;;4.03;2.78;;;;;;;;;;5013474;28;20033;-63
2021/09/19 10:42:10;;;;;;;4.32;3.15;;;;;;;;;;4998053;28;20031;-60
2021/09/19 10:44:37;;;;;;;4.65;3.20;;;;;;;;;;4993746;28;20108;-62
2021/09/19 10:47:06;;;;;;;4.70;3.38;;;;;;;;;;5009756;28;20103;-61
2021/09/19 10:49:34;;;;;;;5.40;3.50;;;;;;;;;;5013360;28;20033;-62
2021/09/19 10:51:59;;;;;;;4.50;3.25;;;;;;;;;;5011433;28;20040;-61
2021/09/19 10:54:54;;;;;;;6.72;3.63;;;;;;;;;;5013053;28;20060;-60
2021/09/19 10:57:22;;;;;;;5.25;3.40;;;;;;;;;;5003495;28;20109;-60
2021/09/19 11:00:06;;;;;;;4.63;3.25;;;;;;;;;;5011402;28;20091;-63
2021/09/19 11:02:32;;;;;;;5.55;3.28;;;;;;;;;;5012592;28;20038;-61
2021/09/19 11:05:17;;;;;;;4.88;3.60;;;;;;;;;;5012828;28;20075;-61
2021/09/19 11:07:43;;;;;;;4.38;3.00;;;;;;;;;;5005049;28;20041;-62
2021/09/19 11:10:08;;;;;;;4.45;2.85;;;;;;;;;;5011444;28;20072;-61
2021/09/19 11:12:40;;;;;;;4.65;2.83;;;;;;;;;;4993191;28;20450;-63
2021/09/19 11:15:06;;;;;;;4.47;2.63;;;;;;;;;;4992830;28;20208;-63
2021/09/19 11:17:33;;;;;;;3.78;2.90;;;;;;;;;;4993124;28;20105;-62
2021/09/19 11:20:10;;;;;;;3.80;2.60;;;;;;;;;;4993126;28;20085;-62
2021/09/19 11:22:36;;;;;;;4.43;3.20;;;;;;;;;;4992893;28;20034;-62
2021/09/19 11:25:02;;;;;;;5.13;3.00;;;;;;;;;;4992772;28;20032;-62
2021/09/19 11:27:30;;;;;;;6.82;2.90;;;;;;;;;;4991960;28;20031;-62
2021/09/19 11:29:55;;;;;;;4.68;3.13;;;;;;;;;;4993193;28;20076;-62
2021/09/19 11:32:20;;;;;;;4.47;3.17;;;;;;;;;;4992655;28;20038;-62
2021/09/19 11:34:45;;;;;;;3.70;2.67;;;;;;;;;;5011704;28;20037;-62
2021/09/19 11:37:10;;;;;;;7.18;3.00;;;;;;;;;;5010998;28;20033;-62
2021/09/19 11:39:36;;;;;;;4.45;3.10;;;;;;;;;;5012753;28;20025;-63
2021/09/19 11:42:06;;;;;;;4.43;2.80;;;;;;;;;;5012238;28;20105;-63
2021/09/19 11:44:31;;;;;;;5.35;3.15;;;;;;;;;;5012470;28;20038;-62
2021/09/19 11:46:56;;;;;;;3.90;2.60;;;;;;;;;;5012233;28;20481;-62
2021/09/19 11:49:22;;;;;;;5.25;2.97;;;;;;;;;;5012654;28;20021;-62
2021/09/19 11:51:47;;;;;;;4.05;2.90;;;;;;;;;;5010581;28;20037;-62
2021/09/19 11:54:13;;;;;;;4.93;3.00;;;;;;;;;;5012607;28;20436;-62
2021/09/19 11:56:40;;;;;;;3.90;2.85;;;;;;;;;;5011966;28;20550;-62
2021/09/19 11:59:05;;;;;;;4.03;2.60;;;;;;;;;;5012401;28;20030;-61
2021/09/19 12:01:30;;;;;;;4.53;3.08;;;;;;;;;;5011930;28;20026;-62
2021/09/19 12:04:03;;;;;;;4.35;3.17;;;;;;;;;;5012336;28;20025;-62
2021/09/19 12:06:29;;;;;;;3.85;2.75;;;;;;;;;;5011959;28;20073;-61
2021/09/19 12:08:54;;;;;;;3.88;2.65;;;;;;;;;;5012090;28;20022;-62
2021/09/19 12:11:19;;;;;;;3.58;2.63;;;;;;;;;;5012850;28;20046;-63
2021/09/19 12:13:48;;;;;;;6.15;2.97;;;;;;;;;;5015900;28;20026;-62
2021/09/19 12:16:15;;;;;;;3.70;2.60;;;;;;;;;;5015724;28;20030;-62
2021/09/19 12:18:41;;;;;;;4.05;2.75;;;;;;;;;;5016019;28;20053;-62
2021/09/19 12:21:08;;;;;;;4.03;2.72;;;;;;;;;;5015389;28;20046;-62
2021/09/19 12:23:41;;;;;;;4.30;2.90;;;;;;;;;;5015783;28;20022;-62
2021/09/19 12:26:06;;;;;;;4.65;3.08;;;;;;;;;;5015438;28;20098;-62
2021/09/19 12:28:32;;;;;;;3.95;2.65;;;;;;;;;;5015671;28;20444;-62
2021/09/19 12:30:58;;;;;;;3.70;2.47;;;;;;;;;;5015391;28;20116;-62
2021/09/19 12:33:23;;;;;;;3.97;2.70;;;;;;;;;;5015802;28;20057;-62
2021/09/19 12:35:48;;;;;;;4.30;2.70;;;;;;;;;;5015318;28;20103;-62
2021/09/19 12:38:14;;;;;;;4.93;2.90;;;;;;;;;;5015771;28;20018;-62
2021/09/19 12:40:39;;;;;;;5.05;2.72;;;;;;;;;;5013846;28;20429;-62
2021/09/19 12:43:05;;;;;;;4.03;2.80;;;;;;;;;;5015517;28;20180;-62
2021/09/19 12:45:31;;;;;;;5.50;2.70;;;;;;;;;;5015127;28;20057;-62
2021/09/19 12:47:56;;;;;;;4.00;2.80;;;;;;;;;;5015620;28;20384;-62
2021/09/19 12:50:21;;;;;;;4.50;3.10;;;;;;;;;;5015042;28;20381;-62
2021/09/19 12:52:46;;;;;;;3.90;2.72;;;;;;;;;;5015378;28;20057;-62
2021/09/19 12:55:15;;;;;;;3.72;2.65;;;;;;;;;;5014822;28;20022;-62
2021/09/19 12:57:41;;;;;;;3.50;2.75;;;;;;;;;;5015274;28;20045;-62
2021/09/19 13:00:06;;;;;;;4.68;3.15;;;;;;;;;;5014954;28;20050;-62
2021/09/19 13:02:31;;;;;;;4.70;2.97;;;;;;;;;;5015275;28;20084;-62
2021/09/19 13:04:57;;;;;;;3.67;2.88;;;;;;;;;;5014970;28;20083;-62
2021/09/19 13:07:23;;;;;;;4.45;3.00;;;;;;;;;;5014488;28;20080;-62
2021/09/19 13:09:48;;;;;;;5.05;2.80;;;;;;;;;;5014742;28;20052;-62
2021/09/19 13:12:14;;;;;;;7.10;3.17;;;;;;;;;;5013182;28;20030;-62
2021/09/19 13:14:39;;;;;;;4.03;2.88;;;;;;;;;;5014904;28;20033;-62
2021/09/19 13:17:04;;;;;;;4.15;2.80;;;;;;;;;;5014409;28;20484;-62
2021/09/19 13:19:30;;;;;;;4.40;2.90;;;;;;;;;;5014688;28;20053;-62
2021/09/19 13:21:55;;;;;;;7.20;3.22;;;;;;;;;;5014224;28;20034;-62
2021/09/19 13:24:20;;;;;;;4.47;3.22;;;;;;;;;;5014441;28;20029;-62
2021/09/19 13:26:46;;;;;;;4.82;3.10;;;;;;;;;;5014318;28;20128;-62
2021/09/19 13:29:12;;;;;;;5.00;2.83;;;;;;;;;;5014556;28;20014;-62
2021/09/19 13:31:37;;;;;;;4.50;3.25;;;;;;;;;;5013696;28;20034;-62
2021/09/19 13:34:02;;;;;;;6.95;4.07;;;;;;;;;;5014390;28;20093;-62
2021/09/19 13:36:28;;;;;;;4.40;3.20;;;;;;;;;;5013809;28;20034;-62
2021/09/19 13:38:54;;;;;;;7.45;3.10;;;;;;;;;;5014173;28;20020;-62
2021/09/19 13:41:19;;;;;;;4.90;3.53;;;;;;;;;;5013765;28;20048;-62
2021/09/19 13:43:45;;;;;;;5.57;3.03;;;;;;;;;;5014122;28;20060;-61
2021/09/19 13:46:10;;;;;;;6.13;4.40;;;;;;;;;;5014017;28;20048;-62
2021/09/19 13:48:35;;;;;;;11.10;6.63;;;;;;;;;;5013003;28;20018;-62
2021/09/19 13:51:01;;;;;;;4.30;2.90;;;;;;;;;;5014122;28;20037;-62
2021/09/19 13:53:26;;;;;;;4.70;3.33;;;;;;;;;;5014302;28;20017;-62
2021/09/19 13:55:54;;;;;;;4.82;3.20;;;;;;;;;;5013796;28;20221;-62
2021/09/19 13:58:19;;;;;;;4.75;3.30;;;;;;;;;;5014319;28;20021;-62
2021/09/19 14:00:44;;;;;;;4.78;3.33;;;;;;;;;;5013729;28;20030;-63
2021/09/19 14:03:10;;;;;;;6.32;3.45;;;;;;;;;;5014101;28;20030;-62
2021/09/19 14:05:35;;;;;;;6.10;3.60;;;;;;;;;;5013654;28;20041;-62
2021/09/19 14:08:00;;;;;;;5.38;3.40;;;;;;;;;;5013967;28;20033;-63
2021/09/19 14:10:26;;;;;;;5.22;3.45;;;;;;;;;;5013259;28;20484;-62
2021/09/19 14:12:51;;;;;;;5.60;3.40;;;;;;;;;;5013988;28;20119;-64
2021/09/19 14:15:16;;;;;;;6.72;3.53;;;;;;;;;;5013331;28;20028;-62
2021/09/19 14:17:41;;;;;;;5.45;3.42;;;;;;;;;;5013724;28;20361;-62
2021/09/19 14:20:07;;;;;;;6.38;3.40;;;;;;;;;;5013291;28;20109;-63
2021/09/19 14:22:33;;;;;;;5.00;3.40;;;;;;;;;;5013603;28;20014;-60
2021/09/19 14:24:58;;;;;;;9.45;3.80;;;;;;;;;;5013364;28;20464;-62
2021/09/19 14:27:23;;;;;;;4.78;3.22;;;;;;;;;;5013256;28;20117;-62
2021/09/19 14:29:48;;;;;;;6.35;3.70;;;;;;;;;;5013711;28;20114;-62
2021/09/19 14:32:13;;;;;;;6.10;4.10;;;;;;;;;;5011870;28;20481;-62